sensor_id;sensor_type;location;lat;lon;timestamp;P1;durP1;ratioP1;P2;durP2;ratioP2
15381;SDS011;7789;51.364;12.358;2022-11-20T00:02:46;17.77;;;11.77;;
15381;SDS011;7789;51.364;12.358;2022-11-20T00:08:14;18.47;;;12.17;;
15381;SDS011;7789;51.364;12.358;2022-11-20T00:13:55;18.40;;;12.00;;
15381;SDS011;7789;51.364;12.358;2022-11-20T00:19:56;15.87;;;11.50;;
15381;SDS011;7789;51.364;12.358;2022-11-20T00:25:34;18.73;;;12.07;;
15381;SDS011;7789;51.364;12.358;2022-11-20T00:31:15;16.60;;;11.57;;
15381;SDS011;7789;51.364;12.358;2022-11-20T00:36:39;18.97;;;12.47;;
15381;SDS011;7789;51.364;12.358;2022-11-20T00:42:16;17.80;;;12.00;;
15381;SDS011;7789;51.364;12.358;2022-11-20T00:48:11;15.20;;;10.93;;
15381;SDS011;7789;51.364;12.358;2022-11-20T00:54:15;19.20;;;12.30;;
15381;SDS011;7789;51.364;12.358;2022-11-20T00:59:55;19.00;;;12.00;;
15381;SDS011;7789;51.364;12.358;2022-11-20T01:05:22;20.57;;;12.33;;
15381;SDS011;7789;51.364;12.358;2022-11-20T01:10:58;19.83;;;12.13;;
15381;SDS011;7789;51.364;12.358;2022-11-20T01:16:34;18.47;;;11.87;;
15381;SDS011;7789;51.364;12.358;2022-11-20T01:22:13;22.87;;;13.27;;
15381;SDS011;7789;51.364;12.358;2022-11-20T01:27:42;18.77;;;12.20;;
15381;SDS011;7789;51.364;12.358;2022-11-20T01:33:33;19.50;;;13.07;;
15381;SDS011;7789;51.364;12.358;2022-11-20T01:39:11;19.67;;;12.67;;
15381;SDS011;7789;51.364;12.358;2022-11-20T01:51:06;19.10;;;12.40;;
15381;SDS011;7789;51.364;12.358;2022-11-20T01:57:03;17.40;;;12.03;;
15381;SDS011;7789;51.364;12.358;2022-11-20T02:02:31;19.27;;;11.20;;
15381;SDS011;7789;51.364;12.358;2022-11-20T02:07:56;16.83;;;10.90;;
15381;SDS011;7789;51.364;12.358;2022-11-20T02:13:30;22.50;;;12.87;;
15381;SDS011;7789;51.364;12.358;2022-11-20T02:19:07;18.53;;;12.13;;
15381;SDS011;7789;51.364;12.358;2022-11-20T02:25:01;18.20;;;11.67;;
15381;SDS011;7789;51.364;12.358;2022-11-20T02:30:28;17.17;;;11.47;;
15381;SDS011;7789;51.364;12.358;2022-11-20T02:35:54;19.37;;;12.47;;
15381;SDS011;7789;51.364;12.358;2022-11-20T02:41:29;19.90;;;11.40;;
15381;SDS011;7789;51.364;12.358;2022-11-20T02:46:56;16.30;;;11.93;;
15381;SDS011;7789;51.364;12.358;2022-11-20T02:52:39;19.97;;;10.97;;
15381;SDS011;7789;51.364;12.358;2022-11-20T02:58:09;18.67;;;11.63;;
15381;SDS011;7789;51.364;12.358;2022-11-20T03:03:32;19.50;;;11.40;;
15381;SDS011;7789;51.364;12.358;2022-11-20T03:09:07;21.70;;;12.73;;
15381;SDS011;7789;51.364;12.358;2022-11-20T03:14:48;20.37;;;12.83;;
15381;SDS011;7789;51.364;12.358;2022-11-20T03:20:23;24.20;;;13.10;;
15381;SDS011;7789;51.364;12.358;2022-11-20T03:25:49;22.73;;;13.07;;
15381;SDS011;7789;51.364;12.358;2022-11-20T03:31:20;19.90;;;13.00;;
15381;SDS011;7789;51.364;12.358;2022-11-20T03:36:46;20.67;;;13.03;;
15381;SDS011;7789;51.364;12.358;2022-11-20T03:42:14;22.83;;;13.37;;
15381;SDS011;7789;51.364;12.358;2022-11-20T03:47:56;20.93;;;13.40;;
15381;SDS011;7789;51.364;12.358;2022-11-20T03:53:20;25.17;;;13.30;;
15381;SDS011;7789;51.364;12.358;2022-11-20T03:58:51;24.43;;;15.03;;
15381;SDS011;7789;51.364;12.358;2022-11-20T04:04:20;23.07;;;13.63;;
15381;SDS011;7789;51.364;12.358;2022-11-20T04:09:44;27.63;;;14.43;;
15381;SDS011;7789;51.364;12.358;2022-11-20T04:15:16;27.87;;;16.13;;
15381;SDS011;7789;51.364;12.358;2022-11-20T04:20:45;23.47;;;14.03;;
15381;SDS011;7789;51.364;12.358;2022-11-20T04:26:29;25.40;;;14.43;;
15381;SDS011;7789;51.364;12.358;2022-11-20T04:31:59;24.67;;;14.57;;
15381;SDS011;7789;51.364;12.358;2022-11-20T04:37:28;26.80;;;15.80;;
15381;SDS011;7789;51.364;12.358;2022-11-20T04:42:55;23.87;;;14.60;;
15381;SDS011;7789;51.364;12.358;2022-11-20T04:48:31;24.10;;;14.47;;
15381;SDS011;7789;51.364;12.358;2022-11-20T04:54:05;26.40;;;14.97;;
15381;SDS011;7789;51.364;12.358;2022-11-20T04:59:35;26.67;;;14.60;;
15381;SDS011;7789;51.364;12.358;2022-11-20T05:05:11;26.60;;;15.10;;
15381;SDS011;7789;51.364;12.358;2022-11-20T05:16:40;24.07;;;14.33;;
15381;SDS011;7789;51.364;12.358;2022-11-20T05:22:07;23.07;;;13.47;;
15381;SDS011;7789;51.364;12.358;2022-11-20T05:27:42;23.77;;;14.70;;
15381;SDS011;7789;51.364;12.358;2022-11-20T05:33:12;29.67;;;15.27;;
15381;SDS011;7789;51.364;12.358;2022-11-20T05:38:49;23.33;;;14.97;;
15381;SDS011;7789;51.364;12.358;2022-11-20T05:44:22;23.67;;;14.43;;
15381;SDS011;7789;51.364;12.358;2022-11-20T05:49:52;27.53;;;16.07;;
15381;SDS011;7789;51.364;12.358;2022-11-20T05:55:16;26.77;;;15.37;;
15381;SDS011;7789;51.364;12.358;2022-11-20T06:00:43;26.30;;;14.97;;
15381;SDS011;7789;51.364;12.358;2022-11-20T06:06:10;26.60;;;15.67;;
15381;SDS011;7789;51.364;12.358;2022-11-20T06:11:34;26.70;;;14.73;;
15381;SDS011;7789;51.364;12.358;2022-11-20T06:17:00;24.30;;;14.73;;
15381;SDS011;7789;51.364;12.358;2022-11-20T06:22:26;24.83;;;13.90;;
15381;SDS011;7789;51.364;12.358;2022-11-20T06:27:59;24.33;;;15.23;;
15381;SDS011;7789;51.364;12.358;2022-11-20T06:33:26;27.00;;;15.47;;
15381;SDS011;7789;51.364;12.358;2022-11-20T06:38:57;28.00;;;15.93;;
15381;SDS011;7789;51.364;12.358;2022-11-20T06:44:24;27.63;;;15.90;;
15381;SDS011;7789;51.364;12.358;2022-11-20T06:50:09;31.20;;;15.70;;
15381;SDS011;7789;51.364;12.358;2022-11-20T06:55:50;28.30;;;15.70;;
15381;SDS011;7789;51.364;12.358;2022-11-20T07:01:18;25.83;;;15.40;;
15381;SDS011;7789;51.364;12.358;2022-11-20T07:12:37;23.67;;;15.13;;
15381;SDS011;7789;51.364;12.358;2022-11-20T07:18:04;24.87;;;15.00;;
15381;SDS011;7789;51.364;12.358;2022-11-20T07:23:41;26.13;;;15.40;;
15381;SDS011;7789;51.364;12.358;2022-11-20T07:29:12;25.97;;;15.67;;
15381;SDS011;7789;51.364;12.358;2022-11-20T07:34:55;28.97;;;15.97;;
15381;SDS011;7789;51.364;12.358;2022-11-20T07:40:42;24.23;;;14.20;;
15381;SDS011;7789;51.364;12.358;2022-11-20T07:46:16;29.23;;;15.93;;
15381;SDS011;7789;51.364;12.358;2022-11-20T07:51:55;24.47;;;14.83;;
15381;SDS011;7789;51.364;12.358;2022-11-20T07:57:31;24.37;;;13.60;;
15381;SDS011;7789;51.364;12.358;2022-11-20T08:08:51;24.93;;;14.77;;
15381;SDS011;7789;51.364;12.358;2022-11-20T08:14:45;21.60;;;14.27;;
15381;SDS011;7789;51.364;12.358;2022-11-20T08:20:32;24.63;;;14.93;;
15381;SDS011;7789;51.364;12.358;2022-11-20T08:25:59;21.13;;;14.20;;
15381;SDS011;7789;51.364;12.358;2022-11-20T08:44:34;23.53;;;14.93;;
15381;SDS011;7789;51.364;12.358;2022-11-20T08:50:39;22.17;;;13.60;;
15381;SDS011;7789;51.364;12.358;2022-11-20T08:56:04;22.10;;;13.17;;
15381;SDS011;7789;51.364;12.358;2022-11-20T09:01:52;18.43;;;12.07;;
15381;SDS011;7789;51.364;12.358;2022-11-20T09:07:17;20.87;;;13.07;;
15381;SDS011;7789;51.364;12.358;2022-11-20T09:12:52;20.87;;;12.37;;
15381;SDS011;7789;51.364;12.358;2022-11-20T09:18:19;17.43;;;12.43;;
15381;SDS011;7789;51.364;12.358;2022-11-20T09:23:41;17.60;;;11.67;;
15381;SDS011;7789;51.364;12.358;2022-11-20T09:29:24;16.83;;;11.40;;
15381;SDS011;7789;51.364;12.358;2022-11-20T09:35:10;18.37;;;11.90;;
15381;SDS011;7789;51.364;12.358;2022-11-20T09:41:02;19.50;;;12.53;;
15381;SDS011;7789;51.364;12.358;2022-11-20T09:46:48;16.30;;;10.77;;
15381;SDS011;7789;51.364;12.358;2022-11-20T09:52:25;17.17;;;12.40;;
15381;SDS011;7789;51.364;12.358;2022-11-20T09:57:56;17.87;;;12.23;;
15381;SDS011;7789;51.364;12.358;2022-11-20T10:03:26;20.53;;;13.00;;
15381;SDS011;7789;51.364;12.358;2022-11-20T10:09:27;20.70;;;13.83;;
15381;SDS011;7789;51.364;12.358;2022-11-20T10:16:02;20.97;;;13.83;;
15381;SDS011;7789;51.364;12.358;2022-11-20T10:21:38;22.13;;;14.93;;
15381;SDS011;7789;51.364;12.358;2022-11-20T10:33:44;20.03;;;13.73;;
15381;SDS011;7789;51.364;12.358;2022-11-20T10:39:37;17.70;;;12.00;;
15381;SDS011;7789;51.364;12.358;2022-11-20T10:45:21;21.10;;;14.43;;
15381;SDS011;7789;51.364;12.358;2022-11-20T10:57:31;19.03;;;12.63;;
15381;SDS011;7789;51.364;12.358;2022-11-20T11:03:25;19.47;;;12.60;;
15381;SDS011;7789;51.364;12.358;2022-11-20T11:09:52;16.43;;;11.00;;
15381;SDS011;7789;51.364;12.358;2022-11-20T11:15:26;13.67;;;9.73;;
15381;SDS011;7789;51.364;12.358;2022-11-20T11:20:55;13.37;;;9.83;;
15381;SDS011;7789;51.364;12.358;2022-11-20T11:26:24;12.60;;;9.10;;
15381;SDS011;7789;51.364;12.358;2022-11-20T11:32:02;13.13;;;8.50;;
15381;SDS011;7789;51.364;12.358;2022-11-20T11:37:33;10.70;;;8.10;;
15381;SDS011;7789;51.364;12.358;2022-11-20T11:43:22;9.97;;;7.77;;
15381;SDS011;7789;51.364;12.358;2022-11-20T11:49:15;9.50;;;7.00;;
15381;SDS011;7789;51.364;12.358;2022-11-20T11:54:45;9.70;;;7.03;;
15381;SDS011;7789;51.364;12.358;2022-11-20T12:00:17;10.53;;;7.70;;
15381;SDS011;7789;51.364;12.358;2022-11-20T12:05:44;11.53;;;7.20;;
15381;SDS011;7789;51.364;12.358;2022-11-20T12:11:23;9.63;;;7.40;;
15381;SDS011;7789;51.364;12.358;2022-11-20T12:17:09;10.93;;;7.87;;
15381;SDS011;7789;51.364;12.358;2022-11-20T12:22:48;11.57;;;8.17;;
15381;SDS011;7789;51.364;12.358;2022-11-20T12:28:28;11.63;;;7.70;;
15381;SDS011;7789;51.364;12.358;2022-11-20T12:34:14;10.73;;;7.60;;
15381;SDS011;7789;51.364;12.358;2022-11-20T12:39:53;10.23;;;7.63;;
15381;SDS011;7789;51.364;12.358;2022-11-20T12:45:49;10.57;;;7.10;;
15381;SDS011;7789;51.364;12.358;2022-11-20T12:51:54;9.07;;;7.10;;
15381;SDS011;7789;51.364;12.358;2022-11-20T12:57:42;10.73;;;7.40;;
15381;SDS011;7789;51.364;12.358;2022-11-20T13:03:31;10.80;;;7.47;;
15381;SDS011;7789;51.364;12.358;2022-11-20T13:09:12;11.30;;;7.17;;
15381;SDS011;7789;51.364;12.358;2022-11-20T13:20:58;10.57;;;7.00;;
15381;SDS011;7789;51.364;12.358;2022-11-20T13:26:24;9.07;;;6.50;;
15381;SDS011;7789;51.364;12.358;2022-11-20T13:32:05;10.13;;;7.87;;
15381;SDS011;7789;51.364;12.358;2022-11-20T13:37:38;9.37;;;7.30;;
15381;SDS011;7789;51.364;12.358;2022-11-20T13:43:18;11.33;;;7.77;;
15381;SDS011;7789;51.364;12.358;2022-11-20T13:48:58;10.90;;;8.10;;
15381;SDS011;7789;51.364;12.358;2022-11-20T13:54:45;12.83;;;7.20;;
15381;SDS011;7789;51.364;12.358;2022-11-20T14:06:25;8.67;;;6.77;;
15381;SDS011;7789;51.364;12.358;2022-11-20T14:11:56;8.43;;;6.73;;
15381;SDS011;7789;51.364;12.358;2022-11-20T14:17:31;8.50;;;6.27;;
15381;SDS011;7789;51.364;12.358;2022-11-20T14:23:04;9.57;;;6.43;;
15381;SDS011;7789;51.364;12.358;2022-11-20T14:28:49;8.83;;;6.47;;
15381;SDS011;7789;51.364;12.358;2022-11-20T14:40:30;10.57;;;7.40;;
15381;SDS011;7789;51.364;12.358;2022-11-20T14:46:05;9.70;;;7.27;;
15381;SDS011;7789;51.364;12.358;2022-11-20T14:51:39;9.57;;;7.00;;
15381;SDS011;7789;51.364;12.358;2022-11-20T14:57:28;9.70;;;6.73;;
15381;SDS011;7789;51.364;12.358;2022-11-20T15:02:57;10.70;;;7.67;;
15381;SDS011;7789;51.364;12.358;2022-11-20T15:08:57;10.50;;;7.10;;
15381;SDS011;7789;51.364;12.358;2022-11-20T15:20:42;12.77;;;8.40;;
15381;SDS011;7789;51.364;12.358;2022-11-20T15:26:17;12.83;;;8.50;;
15381;SDS011;7789;51.364;12.358;2022-11-20T15:31:52;13.77;;;8.97;;
15381;SDS011;7789;51.364;12.358;2022-11-20T15:37:39;12.57;;;8.20;;
15381;SDS011;7789;51.364;12.358;2022-11-20T15:43:26;12.13;;;8.60;;
15381;SDS011;7789;51.364;12.358;2022-11-20T15:49:02;11.27;;;8.63;;
15381;SDS011;7789;51.364;12.358;2022-11-20T15:54:49;13.80;;;9.13;;
15381;SDS011;7789;51.364;12.358;2022-11-20T16:00:43;13.17;;;9.10;;
15381;SDS011;7789;51.364;12.358;2022-11-20T16:11:51;14.93;;;9.50;;
15381;SDS011;7789;51.364;12.358;2022-11-20T16:17:29;13.67;;;8.50;;
15381;SDS011;7789;51.364;12.358;2022-11-20T16:23:12;12.37;;;9.07;;
15381;SDS011;7789;51.364;12.358;2022-11-20T16:28:44;13.73;;;9.90;;
15381;SDS011;7789;51.364;12.358;2022-11-20T16:34:07;14.20;;;9.80;;
15381;SDS011;7789;51.364;12.358;2022-11-20T16:39:40;14.60;;;9.80;;
15381;SDS011;7789;51.364;12.358;2022-11-20T16:45:18;14.20;;;9.63;;
15381;SDS011;7789;51.364;12.358;2022-11-20T16:50:55;14.00;;;9.67;;
15381;SDS011;7789;51.364;12.358;2022-11-20T16:56:29;16.33;;;10.37;;
15381;SDS011;7789;51.364;12.358;2022-11-20T17:02:02;14.97;;;9.87;;
15381;SDS011;7789;51.364;12.358;2022-11-20T17:07:40;18.37;;;10.90;;
15381;SDS011;7789;51.364;12.358;2022-11-20T17:13:53;15.63;;;10.90;;
15381;SDS011;7789;51.364;12.358;2022-11-20T17:19:26;17.67;;;11.67;;
15381;SDS011;7789;51.364;12.358;2022-11-20T17:24:58;21.17;;;12.93;;
15381;SDS011;7789;51.364;12.358;2022-11-20T17:36:43;23.67;;;14.33;;
15381;SDS011;7789;51.364;12.358;2022-11-20T17:42:13;25.63;;;15.80;;
15381;SDS011;7789;51.364;12.358;2022-11-20T17:48:07;21.37;;;13.83;;
15381;SDS011;7789;51.364;12.358;2022-11-20T17:53:55;25.13;;;13.27;;
15381;SDS011;7789;51.364;12.358;2022-11-20T17:59:22;22.60;;;13.00;;
15381;SDS011;7789;51.364;12.358;2022-11-20T18:05:04;23.23;;;14.27;;
15381;SDS011;7789;51.364;12.358;2022-11-20T18:10:42;22.10;;;14.27;;
15381;SDS011;7789;51.364;12.358;2022-11-20T18:16:10;23.30;;;14.53;;
15381;SDS011;7789;51.364;12.358;2022-11-20T18:21:41;23.70;;;14.03;;
15381;SDS011;7789;51.364;12.358;2022-11-20T18:27:14;20.83;;;13.87;;
15381;SDS011;7789;51.364;12.358;2022-11-20T18:32:52;22.17;;;14.80;;
15381;SDS011;7789;51.364;12.358;2022-11-20T18:38:19;22.60;;;14.07;;
15381;SDS011;7789;51.364;12.358;2022-11-20T18:43:55;24.83;;;14.77;;
15381;SDS011;7789;51.364;12.358;2022-11-20T18:49:35;25.13;;;14.30;;
15381;SDS011;7789;51.364;12.358;2022-11-20T18:55:00;27.63;;;15.43;;
15381;SDS011;7789;51.364;12.358;2022-11-20T19:00:41;26.20;;;14.77;;
15381;SDS011;7789;51.364;12.358;2022-11-20T19:06:11;23.93;;;14.03;;
15381;SDS011;7789;51.364;12.358;2022-11-20T19:11:44;21.67;;;13.30;;
15381;SDS011;7789;51.364;12.358;2022-11-20T19:17:11;27.13;;;14.63;;
15381;SDS011;7789;51.364;12.358;2022-11-20T19:22:37;22.83;;;13.80;;
15381;SDS011;7789;51.364;12.358;2022-11-20T19:28:12;23.10;;;13.27;;
15381;SDS011;7789;51.364;12.358;2022-11-20T19:34:17;22.50;;;14.17;;
15381;SDS011;7789;51.364;12.358;2022-11-20T19:40:06;25.50;;;15.47;;
15381;SDS011;7789;51.364;12.358;2022-11-20T19:45:38;23.30;;;14.37;;
15381;SDS011;7789;51.364;12.358;2022-11-20T19:51:21;23.93;;;13.87;;
15381;SDS011;7789;51.364;12.358;2022-11-20T19:57:05;21.37;;;12.70;;
15381;SDS011;7789;51.364;12.358;2022-11-20T20:02:31;20.23;;;13.20;;
15381;SDS011;7789;51.364;12.358;2022-11-20T20:08:00;21.77;;;13.33;;
15381;SDS011;7789;51.364;12.358;2022-11-20T20:13:25;20.33;;;12.37;;
15381;SDS011;7789;51.364;12.358;2022-11-20T20:18:52;23.30;;;12.23;;
15381;SDS011;7789;51.364;12.358;2022-11-20T20:24:34;28.10;;;13.53;;
15381;SDS011;7789;51.364;12.358;2022-11-20T20:30:06;21.13;;;12.97;;
15381;SDS011;7789;51.364;12.358;2022-11-20T20:35:42;20.20;;;13.10;;
15381;SDS011;7789;51.364;12.358;2022-11-20T20:41:10;20.13;;;12.43;;
15381;SDS011;7789;51.364;12.358;2022-11-20T20:46:46;22.40;;;12.90;;
15381;SDS011;7789;51.364;12.358;2022-11-20T20:52:27;22.87;;;13.83;;
15381;SDS011;7789;51.364;12.358;2022-11-20T20:57:59;20.70;;;13.47;;
15381;SDS011;7789;51.364;12.358;2022-11-20T21:03:30;21.57;;;13.23;;
15381;SDS011;7789;51.364;12.358;2022-11-20T21:08:56;21.07;;;13.07;;
15381;SDS011;7789;51.364;12.358;2022-11-20T21:14:30;22.07;;;13.97;;
15381;SDS011;7789;51.364;12.358;2022-11-20T21:20:13;21.47;;;13.27;;
15381;SDS011;7789;51.364;12.358;2022-11-20T21:25:52;24.97;;;13.57;;
15381;SDS011;7789;51.364;12.358;2022-11-20T21:31:38;22.83;;;15.23;;
15381;SDS011;7789;51.364;12.358;2022-11-20T21:37:07;24.50;;;13.90;;
15381;SDS011;7789;51.364;12.358;2022-11-20T21:42:34;23.10;;;15.20;;
15381;SDS011;7789;51.364;12.358;2022-11-20T21:48:04;21.90;;;14.57;;
15381;SDS011;7789;51.364;12.358;2022-11-20T21:53:38;22.50;;;14.00;;
15381;SDS011;7789;51.364;12.358;2022-11-20T21:59:05;26.13;;;14.60;;
15381;SDS011;7789;51.364;12.358;2022-11-20T22:04:48;24.10;;;13.87;;
15381;SDS011;7789;51.364;12.358;2022-11-20T22:10:27;22.07;;;14.93;;
15381;SDS011;7789;51.364;12.358;2022-11-20T22:16:00;21.60;;;13.97;;
15381;SDS011;7789;51.364;12.358;2022-11-20T22:21:33;22.63;;;14.77;;
15381;SDS011;7789;51.364;12.358;2022-11-20T22:27:03;22.90;;;14.47;;
15381;SDS011;7789;51.364;12.358;2022-11-20T22:32:26;25.20;;;15.20;;
15381;SDS011;7789;51.364;12.358;2022-11-20T22:38:07;21.97;;;14.30;;
15381;SDS011;7789;51.364;12.358;2022-11-20T22:43:47;23.17;;;15.37;;
15381;SDS011;7789;51.364;12.358;2022-11-20T22:49:27;21.17;;;14.23;;
15381;SDS011;7789;51.364;12.358;2022-11-20T22:55:05;21.97;;;14.33;;
15381;SDS011;7789;51.364;12.358;2022-11-20T23:00:35;20.67;;;13.37;;
15381;SDS011;7789;51.364;12.358;2022-11-20T23:06:22;21.57;;;14.20;;
15381;SDS011;7789;51.364;12.358;2022-11-20T23:11:54;22.60;;;15.63;;
15381;SDS011;7789;51.364;12.358;2022-11-20T23:17:40;21.83;;;13.87;;
15381;SDS011;7789;51.364;12.358;2022-11-20T23:23:17;21.77;;;13.67;;
15381;SDS011;7789;51.364;12.358;2022-11-20T23:34:37;20.97;;;13.93;;
15381;SDS011;7789;51.364;12.358;2022-11-20T23:40:05;23.87;;;16.13;;
15381;SDS011;7789;51.364;12.358;2022-11-20T23:45:39;22.87;;;14.67;;
15381;SDS011;7789;51.364;12.358;2022-11-20T23:51:08;23.10;;;14.73;;
15381;SDS011;7789;51.364;12.358;2022-11-20T23:56:48;23.27;;;14.97;;
